Hauptseite
METAR-TAF:

METAR-TAF

Flughäfen :

Dresden, Deutschland

Flughafen Dresden

Breite: 51-08N, Länge: 013-45E, Höhe: 230 m

Beobachtung

Neuester Wetterbericht von vor 34 Minuten, um 08:20 UTC
Wind 10 kt aus Süd
Temperatur 8°C
Luftfeuchtigkeit 66%
Luftdruck 1010 hPa
Sichtweite 10 km oder mehr
Durchbrochene Bewölkung in der Höhe von 3500 ft

METAR: EDDC 270820Z 18010KT 9999 BKN035 08/02 Q1010 NOSIG

Zeit: 09:54 (08:54 UTC)

Prognose

Neuester Wetterbericht von vor 3 Stunden und 54 Minuten, um 05:00 UTC
Gültige Prognose vom 27 um 06 UTC bis 28 um 06 UTC
Wind 11 kt aus Süd
Sichtweite 10 km oder mehr
keine Wolken unter 1500 m und keine Kumulonimbus oder Gewitterwolken
Zeitweise
vom 27 um 20 UTC bis 27 um 24 UTC
Wind 15 kt aus Süd, Böen bis zu 25 kt

TAF: EDDC 270500Z 2706/2806 18011KT CAVOK TEMPO 2720/2724 17015G25KT

Wetterbeobachtungen und Prognosen von mehr als 4000 Flughäfen (METAR und TAF Bericht).

Die verfügbaren Stationen werden durch gelbe und rote Markierungen auf der Karte dargestellt.

Führen Sie die Maus auf sie, um den Namen der Station zu sehen.

Darauf klicken, um die Beobachtung von Wetterbeobachtungen und Prognosen zu sehen.

Um die Karte zu ändern : klicken Sie auf den grünen Tasten mit einem schwarzen Kreuz Zum Vergrößern, auf den grünen Button mit einem Gedankenstrich zu verkleinern, oder auf die grünen Pfeile für benachbarte Karten.


METAR-TAF: